createdAt,value
2023-04-18T00:00:35.037Z,4.83
2023-04-18T00:03:36.603Z,4.18
2023-04-18T00:06:38.173Z,4.25
2023-04-18T00:09:39.536Z,4.43
2023-04-18T00:12:40.839Z,4.80
2023-04-18T00:15:42.131Z,4.07
2023-04-18T00:18:43.404Z,4.60
2023-04-18T00:21:44.905Z,4.40
2023-04-18T00:24:46.361Z,4.15
2023-04-18T00:27:47.656Z,4.55
2023-04-18T00:30:49.013Z,5.07
2023-04-18T00:33:50.344Z,4.53
2023-04-18T00:36:51.627Z,4.38
2023-04-18T00:39:52.897Z,4.05
2023-04-18T00:42:54.173Z,4.03
2023-04-18T00:45:55.482Z,4.10
2023-04-18T00:48:56.770Z,4.35
2023-04-18T00:51:58.041Z,4.25
2023-04-18T00:54:59.323Z,3.55
2023-04-18T00:58:00.595Z,3.97
2023-04-18T01:01:01.894Z,4.13
2023-04-18T01:04:03.283Z,3.88
2023-04-18T01:07:04.649Z,4.45
2023-04-18T01:10:06.061Z,4.57
2023-04-18T01:13:07.366Z,4.05
2023-04-18T01:16:08.749Z,4.20
2023-04-18T01:19:10.117Z,3.72
2023-04-18T01:22:11.418Z,4.15
2023-04-18T01:25:12.713Z,4.03
2023-04-18T01:28:14.020Z,4.20
2023-04-18T01:31:15.369Z,4.37
2023-04-18T01:34:16.690Z,3.80
2023-04-18T01:37:17.988Z,4.35
2023-04-18T01:40:19.268Z,4.10
2023-04-18T01:43:20.602Z,4.10
2023-04-18T01:46:21.919Z,3.97
2023-04-18T01:49:23.235Z,3.50
2023-04-18T01:52:24.499Z,3.55
2023-04-18T01:55:25.774Z,4.80
2023-04-18T01:58:27.055Z,3.88
2023-04-18T02:01:28.343Z,3.47
2023-04-18T02:04:29.624Z,3.78
2023-04-18T02:07:30.913Z,4.05
2023-04-18T02:10:32.208Z,4.15
2023-04-18T02:13:33.499Z,4.25
2023-04-18T02:16:34.812Z,3.63
2023-04-18T02:19:36.121Z,3.97
2023-04-18T02:22:37.432Z,3.55
2023-04-18T02:25:38.733Z,4.60
2023-04-18T02:28:40.055Z,3.83
2023-04-18T02:31:41.426Z,4.20
2023-04-18T02:34:42.753Z,4.55
2023-04-18T02:37:44.061Z,4.18
2023-04-18T02:40:45.376Z,4.05
2023-04-18T02:43:46.648Z,4.15
2023-04-18T02:46:47.965Z,3.97
2023-04-18T02:49:49.260Z,4.18
2023-04-18T02:52:50.550Z,4.18
2023-04-18T02:55:51.843Z,3.70
2023-04-18T02:58:53.133Z,4.28
2023-04-18T03:01:54.485Z,4.40
2023-04-18T03:04:55.823Z,4.68
2023-04-18T03:07:57.172Z,3.97
2023-04-18T03:10:58.464Z,4.07
2023-04-18T03:13:59.777Z,4.20
2023-04-18T03:17:01.075Z,4.40
2023-04-18T03:20:02.386Z,4.13
2023-04-18T03:23:03.696Z,3.72
2023-04-18T03:26:05.010Z,3.75
2023-04-18T03:29:06.297Z,4.53
2023-04-18T03:32:07.621Z,4.70
2023-04-18T03:35:08.933Z,4.50
2023-04-18T03:38:10.234Z,3.90
2023-04-18T03:41:11.528Z,3.50
2023-04-18T03:44:13.065Z,3.58
2023-04-18T03:47:14.611Z,4.00
2023-04-18T03:50:15.904Z,3.85
2023-04-18T03:53:17.224Z,3.92
2023-04-18T03:56:18.556Z,3.70
2023-04-18T03:59:19.846Z,3.85
2023-04-18T04:02:21.296Z,4.73
2023-04-18T04:05:22.678Z,4.40
2023-04-18T04:08:24.003Z,4.30
2023-04-18T04:11:25.313Z,3.92
2023-04-18T04:14:26.607Z,4.45
2023-04-18T04:17:27.953Z,4.27
2023-04-18T04:20:29.313Z,4.57
2023-04-18T04:23:30.600Z,5.00
2023-04-18T04:26:31.912Z,3.72
2023-04-18T04:29:33.214Z,4.05
2023-04-18T04:32:34.519Z,5.10
2023-04-18T04:35:35.861Z,4.97
2023-04-18T04:38:37.163Z,4.07
2023-04-18T04:41:38.481Z,3.58
2023-04-18T04:44:39.829Z,4.20
2023-04-18T04:47:41.182Z,4.53
2023-04-18T04:50:42.521Z,4.18
2023-04-18T04:53:43.833Z,4.70
2023-04-18T04:56:45.129Z,3.97
2023-04-18T04:59:46.452Z,4.28
2023-04-18T05:02:47.984Z,4.50
2023-04-18T05:05:49.393Z,4.28
2023-04-18T05:08:50.690Z,4.22
2023-04-18T05:11:51.970Z,4.13
2023-04-18T05:14:53.274Z,4.40
2023-04-18T05:17:54.736Z,4.10
2023-04-18T05:20:56.123Z,4.13
2023-04-18T05:23:57.410Z,4.22
2023-04-18T05:26:58.689Z,4.13
2023-04-18T05:30:00.009Z,4.78
2023-04-18T05:33:01.420Z,4.10
2023-04-18T05:36:02.770Z,4.20
2023-04-18T05:39:04.101Z,3.80
2023-04-18T05:42:05.420Z,3.80
2023-04-18T05:45:06.726Z,4.13
2023-04-18T05:48:08.047Z,6.90
2023-04-18T05:51:11.034Z,6.90
2023-04-18T05:54:13.132Z,7.30
2023-04-18T05:57:14.624Z,5.07
2023-04-18T06:00:15.946Z,6.38
2023-04-18T06:03:17.540Z,6.20
2023-04-18T06:06:19.044Z,6.57
2023-04-18T06:09:20.364Z,5.97
2023-04-18T06:12:21.684Z,5.10
2023-04-18T06:15:22.977Z,5.88
2023-04-18T06:18:24.297Z,5.00
2023-04-18T06:21:25.797Z,5.20
2023-04-18T06:24:27.700Z,4.35
2023-04-18T06:27:31.611Z,6.20
2023-04-18T06:30:33.422Z,5.20
2023-04-18T06:33:34.752Z,4.77
2023-04-18T06:36:36.053Z,5.00
2023-04-18T06:39:37.392Z,5.15
2023-04-18T06:42:38.699Z,5.47
2023-04-18T06:45:40.050Z,5.93
2023-04-18T06:48:41.436Z,5.90
2023-04-18T06:51:42.718Z,6.72
2023-04-18T06:54:44.050Z,5.82
2023-04-18T06:57:45.343Z,5.35
2023-04-18T07:00:46.641Z,5.05
2023-04-18T07:03:48.094Z,5.73
2023-04-18T07:06:49.513Z,5.93
2023-04-18T07:09:50.829Z,6.45
2023-04-18T07:12:52.116Z,5.60
2023-04-18T07:15:53.443Z,4.70
2023-04-18T07:18:54.754Z,5.80
2023-04-18T07:21:56.095Z,5.18
2023-04-18T07:24:57.389Z,4.72
2023-04-18T07:27:58.700Z,4.93
2023-04-18T07:31:00.081Z,4.95
2023-04-18T07:34:01.448Z,4.70
2023-04-18T07:37:02.786Z,5.05
2023-04-18T07:40:04.087Z,4.40
2023-04-18T07:43:05.390Z,5.63
2023-04-18T07:46:06.711Z,9.07
2023-04-18T07:49:08.053Z,13.83
2023-04-18T07:52:09.413Z,10.05
2023-04-18T07:55:10.736Z,8.68
2023-04-18T07:58:12.035Z,8.20
2023-04-18T08:01:13.328Z,7.90
2023-04-18T08:04:14.822Z,7.53
2023-04-18T08:07:16.309Z,7.35
2023-04-18T08:10:17.640Z,7.82
2023-04-18T08:13:18.940Z,7.72
2023-04-18T08:16:20.376Z,7.20
2023-04-18T08:19:21.697Z,6.63
2023-04-18T08:22:23.041Z,6.95
2023-04-18T08:25:24.363Z,6.53
2023-04-18T08:28:25.695Z,6.70
2023-04-18T08:31:27.080Z,6.13
2023-04-18T08:34:28.420Z,6.70
2023-04-18T08:37:29.719Z,6.03
2023-04-18T08:40:31.025Z,5.13
2023-04-18T08:43:32.335Z,5.32
2023-04-18T08:46:33.677Z,6.55
2023-04-18T08:49:34.988Z,5.50
2023-04-18T08:52:36.406Z,6.30
2023-04-18T08:55:37.702Z,5.82
2023-04-18T08:58:39.070Z,5.20
2023-04-18T09:01:40.393Z,4.53
2023-04-18T09:04:41.780Z,5.37
2023-04-18T09:07:43.104Z,5.68
2023-04-18T09:10:46.475Z,5.07
2023-04-18T09:13:48.097Z,5.53
2023-04-18T09:16:49.420Z,5.10
2023-04-18T09:19:50.812Z,4.83
2023-04-18T09:22:52.156Z,5.55
2023-04-18T09:25:53.497Z,5.00
2023-04-18T09:28:54.791Z,5.15
2023-04-18T09:31:56.096Z,4.65
2023-04-18T09:34:57.405Z,4.63
2023-04-18T09:37:58.721Z,4.25
2023-04-18T09:41:00.047Z,4.50
2023-04-18T09:44:01.353Z,5.43
2023-04-18T09:47:02.664Z,13.27
2023-04-18T09:50:03.982Z,11.67
2023-04-18T09:53:05.269Z,9.93
2023-04-18T09:56:06.579Z,6.05
2023-04-18T09:59:07.902Z,5.90
2023-04-18T10:02:09.296Z,4.97
2023-04-18T10:05:10.727Z,6.13
2023-04-18T10:08:12.058Z,4.35
2023-04-18T10:11:13.391Z,4.88
2023-04-18T10:14:14.846Z,6.00
2023-04-18T10:17:16.324Z,6.47
2023-04-18T10:20:17.638Z,4.97
2023-04-18T10:23:19.019Z,6.38
2023-04-18T10:26:20.320Z,7.10
2023-04-18T10:29:21.636Z,6.07
2023-04-18T10:32:23.122Z,7.35
2023-04-18T10:35:24.482Z,6.87
2023-04-18T10:38:25.802Z,6.15
2023-04-18T10:41:27.107Z,6.75
2023-04-18T10:44:28.468Z,7.00
2023-04-18T10:47:29.856Z,5.63
2023-04-18T10:50:31.233Z,5.23
2023-04-18T10:53:32.538Z,5.97
2023-04-18T10:56:33.866Z,4.40
2023-04-18T10:59:35.220Z,4.82
2023-04-18T11:02:36.635Z,5.85
2023-04-18T11:05:38.064Z,5.17
2023-04-18T11:08:39.826Z,4.85
2023-04-18T11:11:41.143Z,4.55
2023-04-18T11:14:42.494Z,4.03
2023-04-18T11:17:43.867Z,4.88
2023-04-18T11:20:45.180Z,4.53
2023-04-18T11:23:46.513Z,4.45
2023-04-18T11:26:47.807Z,5.03
2023-04-18T11:29:49.157Z,4.10
2023-04-18T11:32:50.483Z,4.30
2023-04-18T11:35:51.788Z,4.63
2023-04-18T11:38:53.083Z,4.25
2023-04-18T11:41:54.379Z,4.97
2023-04-18T11:44:55.704Z,5.03
2023-04-18T11:47:57.048Z,5.05
2023-04-18T11:50:58.352Z,4.77
2023-04-18T11:53:59.666Z,5.63
2023-04-18T11:57:00.956Z,4.20
2023-04-18T12:00:02.275Z,5.00
2023-04-18T12:03:03.679Z,4.25
2023-04-18T12:06:05.349Z,4.90
2023-04-18T12:09:06.965Z,5.43
2023-04-18T12:12:08.316Z,3.85
2023-04-18T12:15:09.640Z,4.25
2023-04-18T12:18:10.952Z,4.57
2023-04-18T12:21:12.249Z,4.97
2023-04-18T12:24:13.805Z,4.35
2023-04-18T12:27:15.355Z,3.72
2023-04-18T12:30:16.704Z,4.57
2023-04-18T12:33:18.006Z,3.90
2023-04-18T12:36:19.290Z,4.47
2023-04-18T12:39:20.584Z,3.88
2023-04-18T12:42:21.883Z,3.47
2023-04-18T12:45:23.199Z,4.10
2023-04-18T12:48:24.513Z,4.65
2023-04-18T12:51:25.835Z,4.43
2023-04-18T12:54:27.147Z,3.78
2023-04-18T12:57:29.966Z,3.67
2023-04-18T13:00:33.172Z,3.60
2023-04-18T13:03:34.740Z,3.95
2023-04-18T13:06:36.133Z,3.90
2023-04-18T13:09:37.759Z,3.33
2023-04-18T13:12:39.117Z,3.35
2023-04-18T13:15:40.427Z,3.60
2023-04-18T13:18:41.765Z,3.78
2023-04-18T13:21:43.052Z,3.23
2023-04-18T13:24:44.410Z,2.97
2023-04-18T13:27:45.737Z,3.90
2023-04-18T13:30:47.057Z,4.60
2023-04-18T13:33:48.402Z,7.25
2023-04-18T13:36:50.866Z,6.93
2023-04-18T13:39:52.781Z,8.00
2023-04-18T13:42:54.072Z,5.40
2023-04-18T13:45:55.440Z,4.78
2023-04-18T13:48:56.816Z,4.75
2023-04-18T13:51:58.213Z,4.53
2023-04-18T13:54:59.541Z,5.93
2023-04-18T13:58:00.840Z,4.57
2023-04-18T14:01:02.182Z,4.47
2023-04-18T14:04:03.788Z,4.00
2023-04-18T14:07:05.207Z,4.63
2023-04-18T14:10:06.557Z,3.83
2023-04-18T14:13:07.865Z,3.95
2023-04-18T14:16:09.461Z,5.22
2023-04-18T14:19:10.825Z,4.45
2023-04-18T14:22:12.130Z,4.80
2023-04-18T14:25:13.403Z,4.18
2023-04-18T14:28:14.807Z,5.07
2023-04-18T14:31:16.165Z,6.47
2023-04-18T14:34:17.536Z,4.43
2023-04-18T14:37:18.853Z,3.17
2023-04-18T14:40:20.166Z,4.20
2023-04-18T14:43:21.472Z,3.25
2023-04-18T14:46:22.791Z,3.92
2023-04-18T14:49:24.115Z,3.10
2023-04-18T14:52:25.410Z,3.30
2023-04-18T14:55:26.683Z,3.22
2023-04-18T14:58:28.018Z,3.42
2023-04-18T15:01:29.364Z,7.32
2023-04-18T15:04:30.802Z,5.22
2023-04-18T15:07:32.177Z,5.60
2023-04-18T15:10:33.479Z,6.22
2023-04-18T15:13:34.760Z,5.65
2023-04-18T15:16:36.077Z,3.47
2023-04-18T15:19:37.402Z,4.75
2023-04-18T15:22:38.819Z,4.47
2023-04-18T15:25:40.153Z,4.60
2023-04-18T15:28:41.451Z,3.65
2023-04-18T15:31:42.782Z,4.63
2023-04-18T15:34:44.130Z,4.43
2023-04-18T15:37:45.460Z,4.33
2023-04-18T15:40:46.771Z,4.90
2023-04-18T15:43:48.092Z,4.30
2023-04-18T15:46:49.396Z,5.03
2023-04-18T15:49:50.705Z,4.70
2023-04-18T15:52:51.999Z,4.47
2023-04-18T15:55:53.312Z,4.28
2023-04-18T15:58:54.609Z,5.65
2023-04-18T16:01:56.083Z,4.40
2023-04-18T16:04:57.553Z,5.30
2023-04-18T16:07:58.870Z,4.73
2023-04-18T16:11:00.174Z,4.63
2023-04-18T16:14:01.508Z,5.18
2023-04-18T16:17:02.812Z,4.25
2023-04-18T16:20:04.153Z,4.15
2023-04-18T16:23:05.461Z,4.80
2023-04-18T16:26:06.765Z,5.03
2023-04-18T16:29:08.050Z,4.07
2023-04-18T16:32:09.370Z,4.63
2023-04-18T16:35:10.737Z,4.50
2023-04-18T16:38:12.285Z,4.93
2023-04-18T16:41:13.660Z,4.88
2023-04-18T16:44:15.213Z,4.15
2023-04-18T16:47:16.685Z,4.68
2023-04-18T16:50:18.282Z,5.05
2023-04-18T16:53:19.693Z,4.00
2023-04-18T16:56:21.018Z,4.63
2023-04-18T16:59:22.331Z,3.92
2023-04-18T17:02:23.781Z,4.50
2023-04-18T17:05:25.148Z,3.85
2023-04-18T17:08:26.457Z,4.40
2023-04-18T17:11:27.764Z,3.60
2023-04-18T17:14:29.171Z,4.35
2023-04-18T17:17:30.827Z,3.75
2023-04-18T17:20:32.240Z,3.83
2023-04-18T17:23:33.514Z,3.60
2023-04-18T17:26:35.182Z,3.88
2023-04-18T17:29:36.638Z,3.40
2023-04-18T17:32:38.485Z,3.92
2023-04-18T17:35:43.871Z,4.20
2023-04-18T17:38:45.709Z,4.57
2023-04-18T17:41:47.533Z,3.45
2023-04-18T17:44:49.306Z,3.90
2023-04-18T17:47:51.164Z,4.15
2023-04-18T17:50:52.795Z,4.25
2023-04-18T17:53:54.212Z,3.30
2023-04-18T17:56:56.010Z,3.55
2023-04-18T17:59:57.822Z,3.85
2023-04-18T18:02:59.367Z,3.83
2023-04-18T18:06:01.811Z,4.10
2023-04-18T18:09:03.735Z,3.80
2023-04-18T18:12:06.074Z,3.67
2023-04-18T18:15:07.473Z,3.97
2023-04-18T18:18:09.656Z,4.30
2023-04-18T18:21:11.614Z,3.75
2023-04-18T18:24:13.164Z,4.13
2023-04-18T18:27:14.881Z,3.58
2023-04-18T18:30:16.702Z,3.80
2023-04-18T18:33:19.068Z,3.92
2023-04-18T18:36:21.270Z,3.28
2023-04-18T18:39:23.058Z,3.90
2023-04-18T18:42:24.939Z,3.40
2023-04-18T18:45:27.824Z,3.90
2023-04-18T18:48:29.576Z,3.65
2023-04-18T18:51:30.916Z,3.08
2023-04-18T18:54:32.206Z,3.50
2023-04-18T18:57:33.989Z,3.38
2023-04-18T19:00:35.869Z,2.95
2023-04-18T19:03:37.955Z,3.00
2023-04-18T19:06:40.015Z,3.13
2023-04-18T19:09:41.928Z,2.60
2023-04-18T19:12:44.851Z,2.60
2023-04-18T19:15:46.751Z,2.70
2023-04-18T19:18:48.638Z,3.63
2023-04-18T19:21:50.703Z,3.30
2023-04-18T19:24:52.719Z,2.50
2023-04-18T19:27:54.609Z,3.53
2023-04-18T19:30:56.540Z,3.05
2023-04-18T19:33:59.344Z,3.00
2023-04-18T19:37:01.399Z,2.38
2023-04-18T19:40:02.949Z,2.93
2023-04-18T19:43:05.322Z,3.25
2023-04-18T19:46:07.267Z,3.03
2023-04-18T19:49:09.372Z,2.83
2023-04-18T19:52:11.286Z,2.75
2023-04-18T19:55:12.813Z,3.13
2023-04-18T19:58:14.481Z,2.55
2023-04-18T20:01:16.406Z,2.78
2023-04-18T20:04:20.866Z,3.20
2023-04-18T20:07:24.215Z,3.38
2023-04-18T20:10:27.933Z,2.90
2023-04-18T20:13:29.745Z,2.97
2023-04-18T20:16:31.207Z,3.25
2023-04-18T20:19:32.968Z,2.60
2023-04-18T20:22:34.818Z,2.90
2023-04-18T20:25:36.730Z,3.10
2023-04-18T20:28:38.657Z,2.70
2023-04-18T20:31:40.531Z,2.92
2023-04-18T20:34:41.941Z,2.30
2023-04-18T20:37:44.765Z,2.25
2023-04-18T20:40:46.272Z,2.17
2023-04-18T20:43:47.743Z,2.40
2023-04-18T20:46:49.102Z,2.60
2023-04-18T20:49:50.479Z,2.35
2023-04-18T20:52:51.798Z,2.88
2023-04-18T20:55:53.129Z,2.03
2023-04-18T20:58:54.658Z,2.75
2023-04-18T21:01:56.339Z,2.58
2023-04-18T21:04:57.765Z,2.70
2023-04-18T21:07:59.076Z,2.65
2023-04-18T21:11:00.406Z,1.87
2023-04-18T21:14:01.765Z,2.67
2023-04-18T21:17:03.109Z,2.35
2023-04-18T21:20:04.411Z,1.95
2023-04-18T21:23:05.715Z,2.22
2023-04-18T21:26:07.026Z,2.33
2023-04-18T21:29:08.310Z,2.50
2023-04-18T21:32:09.609Z,2.78
2023-04-18T21:35:10.924Z,2.25
2023-04-18T21:38:12.231Z,2.30
2023-04-18T21:41:13.541Z,2.63
2023-04-18T21:44:14.973Z,2.05
2023-04-18T21:47:16.406Z,2.20
2023-04-18T21:50:17.736Z,2.08
2023-04-18T21:53:19.058Z,2.00
2023-04-18T21:56:20.350Z,2.30
2023-04-18T21:59:21.664Z,2.75
2023-04-18T22:02:23.086Z,1.90
2023-04-18T22:05:24.436Z,2.63
2023-04-18T22:08:25.877Z,2.15
2023-04-18T22:11:27.224Z,2.13
2023-04-18T22:14:28.516Z,2.25
2023-04-18T22:17:29.804Z,2.17
2023-04-18T22:20:31.143Z,2.58
2023-04-18T22:23:32.435Z,2.50
2023-04-18T22:26:33.755Z,2.03
2023-04-18T22:29:35.041Z,2.42
2023-04-18T22:32:36.414Z,2.22
2023-04-18T22:35:37.748Z,2.20
2023-04-18T22:38:39.046Z,2.55
2023-04-18T22:41:40.361Z,2.60
2023-04-18T22:44:41.663Z,2.40
2023-04-18T22:47:43.035Z,2.28
2023-04-18T22:50:44.384Z,2.35
2023-04-18T22:53:45.691Z,2.47
2023-04-18T22:56:46.981Z,1.83
2023-04-18T22:59:48.287Z,2.47
2023-04-18T23:02:49.740Z,2.95
2023-04-18T23:05:51.108Z,2.10
2023-04-18T23:08:52.413Z,2.55
2023-04-18T23:11:53.728Z,2.23
2023-04-18T23:14:55.036Z,3.00
2023-04-18T23:17:56.378Z,2.28
2023-04-18T23:20:57.709Z,2.58
2023-04-18T23:23:59.025Z,2.80
2023-04-18T23:27:00.312Z,2.07
2023-04-18T23:30:01.620Z,2.30
2023-04-18T23:33:02.997Z,2.90
2023-04-18T23:36:04.349Z,2.28
2023-04-18T23:39:05.645Z,2.38
2023-04-18T23:42:07.142Z,2.40
2023-04-18T23:45:08.438Z,2.72
2023-04-18T23:48:09.742Z,2.60
2023-04-18T23:51:11.033Z,2.70
2023-04-18T23:54:12.377Z,2.55
2023-04-18T23:57:13.702Z,2.90
